Time;durP1;ratioP1;P1;durP2;ratioP2;P2;SDS_P1;SDS_P2;PMS_P1;PMS_P2;Temp;Humidity;BMP_temperature;BMP_pressure;BME280_temperature;BME280_humidity;BME280_pressure;Samples;Min_cycle;Max_cycle;Signal;HPM_P1;HPM_P2
2022/07/04 00:01:08;;;;;;;5.20;2.00;;;;;;;18.06;65.61;101914.97;4948000;29;20055;-49
2022/07/04 00:03:35;;;;;;;7.45;2.30;;;;;;;18.07;65.59;101905.63;4936654;29;20063;-49
2022/07/04 00:06:03;;;;;;;5.07;2.13;;;;;;;18.07;65.62;101911.13;4920542;29;20384;-49
2022/07/04 00:08:30;;;;;;;9.80;2.33;;;;;;;18.08;65.57;101907.25;4935985;29;20430;-49
2022/07/04 00:10:58;;;;;;;7.07;2.40;;;;;;;18.08;65.61;101912.75;4936373;29;20055;-47
2022/07/04 00:13:26;;;;;;;4.43;2.05;;;;;;;18.09;65.86;101909.72;4939082;29;20518;-49
2022/07/04 00:15:53;;;;;;;5.88;2.22;;;;;;;18.12;65.85;101907.50;4937599;29;20048;-50
2022/07/04 00:18:21;;;;;;;6.10;1.88;;;;;;;18.14;65.88;101908.03;4938585;29;20066;-49
2022/07/04 00:20:49;;;;;;;6.10;2.28;;;;;;;18.14;65.77;101905.28;4949698;29;20052;-47
2022/07/04 00:23:16;;;;;;;8.20;2.35;;;;;;;18.12;65.96;101908.31;4936221;29;20039;-48
2022/07/04 00:25:44;;;;;;;6.20;2.20;;;;;;;18.09;66.03;101914.44;4936043;29;20047;-49
2022/07/04 00:28:11;;;;;;;3.50;2.05;;;;;;;18.05;66.16;101907.84;4935819;29;20039;-48
2022/07/04 00:30:39;;;;;;;5.18;2.22;;;;;;;18.04;66.28;101897.94;4920930;29;20079;-49
2022/07/04 00:33:12;;;;;;;4.28;2.10;;;;;;;18.03;66.39;101893.50;4935771;29;20040;-47
2022/07/04 00:35:40;;;;;;;3.47;2.05;;;;;;;18.01;66.53;101895.75;4935920;29;20044;-48
2022/07/04 00:38:08;;;;;;;5.85;2.20;;;;;;;18.00;66.63;101900.44;4936091;29;20043;-48
2022/07/04 00:40:35;;;;;;;3.90;2.00;;;;;;;17.99;66.63;101898.81;4949529;28;20044;-48
2022/07/04 00:43:04;;;;;;;4.82;2.15;;;;;;;17.96;66.64;101899.38;4902846;29;20043;-47
2022/07/04 00:45:32;;;;;;;6.00;2.45;;;;;;;17.94;66.63;101901.59;4937098;29;20048;-47
2022/07/04 00:47:59;;;;;;;4.97;2.15;;;;;;;17.94;66.51;101901.59;4935859;29;20564;-48
2022/07/04 00:50:27;;;;;;;8.48;2.95;;;;;;;17.93;66.75;101896.38;4946349;29;20060;-48
2022/07/04 00:52:55;;;;;;;7.93;2.20;;;;;;;17.92;66.83;101892.81;4935484;29;20054;-48
2022/07/04 00:55:23;;;;;;;3.90;2.15;;;;;;;17.91;66.89;101893.09;4919107;29;20138;-48
2022/07/04 00:57:51;;;;;;;3.97;2.10;;;;;;;17.88;66.75;101892.56;4947920;28;20054;-49
2022/07/04 01:00:19;;;;;;;9.93;2.75;;;;;;;17.87;66.89;101899.19;4936125;29;20044;-49
2022/07/04 01:02:47;;;;;;;7.82;2.10;;;;;;;17.86;67.06;101905.00;4935561;29;20064;-48
2022/07/04 01:05:15;;;;;;;4.63;2.05;;;;;;;17.84;66.87;101897.00;4918795;29;20126;-48
2022/07/04 01:07:43;;;;;;;5.30;2.20;;;;;;;17.81;66.97;101897.59;4918776;29;20440;-49
2022/07/04 01:10:11;;;;;;;7.53;2.63;;;;;;;17.79;67.04;101902.53;4939324;29;20530;-48
2022/07/04 01:12:39;;;;;;;7.00;2.33;;;;;;;17.77;67.02;101898.44;4934765;29;20044;-48
2022/07/04 01:15:08;;;;;;;6.70;2.80;;;;;;;17.75;67.01;101893.22;4935648;29;20036;-47
2022/07/04 01:17:36;;;;;;;8.68;2.60;;;;;;;17.75;67.01;101898.75;4918615;29;20426;-48
2022/07/04 01:20:04;;;;;;;6.38;2.42;;;;;;;17.74;67.15;101893.50;4948983;28;20039;-49
2022/07/04 01:22:32;;;;;;;5.88;2.60;;;;;;;17.70;67.29;101879.47;4940690;29;20074;-45
2022/07/04 01:24:59;;;;;;;5.65;2.60;;;;;;;17.69;67.10;101883.34;4922742;29;20040;-48
2022/07/04 01:27:27;;;;;;;5.43;2.17;;;;;;;17.66;66.96;101879.25;4939418;29;20058;-46
2022/07/04 01:29:55;;;;;;;4.25;2.38;;;;;;;17.61;67.15;101882.03;4948162;29;20040;-48
2022/07/04 01:32:22;;;;;;;5.57;2.83;;;;;;;17.53;67.67;101873.56;4938709;29;20052;-48
2022/07/04 01:34:50;;;;;;;5.60;2.10;;;;;;;17.47;68.00;101875.56;4938960;29;20044;-48
2022/07/04 01:37:18;;;;;;;9.63;2.80;;;;;;;17.45;68.07;101867.56;4939386;29;20510;-47
2022/07/04 01:39:46;;;;;;;5.55;2.47;;;;;;;17.45;67.88;101858.50;4942851;29;20048;-48
2022/07/04 01:42:13;;;;;;;7.70;2.53;;;;;;;17.44;68.03;101865.13;4940336;29;20040;-48
2022/07/04 01:44:43;;;;;;;3.72;2.00;;;;;;;17.45;68.13;101861.25;4939237;29;20514;-52
2022/07/04 01:47:11;;;;;;;4.32;2.50;;;;;;;17.49;68.02;101869.78;4940367;29;20043;-49
2022/07/04 01:49:39;;;;;;;5.50;2.38;;;;;;;17.51;67.67;101871.13;4929732;29;20385;-48
2022/07/04 01:52:06;;;;;;;8.75;2.80;;;;;;;17.51;67.73;101875.78;4937313;29;20063;-50
2022/07/04 01:54:34;;;;;;;6.10;2.65;;;;;;;17.46;67.66;101874.75;4939890;29;20499;-49
2022/07/04 01:57:02;;;;;;;7.55;2.92;;;;;;;17.46;67.57;101869.22;4938526;29;20067;-49
2022/07/04 02:02:16;;;;;;;8.18;2.60;;;;;;;17.41;67.54;101861.00;4938782;29;20063;-50
2022/07/04 02:04:43;;;;;;;4.72;2.53;;;;;;;17.40;67.36;101867.63;4939093;29;20131;-49
2022/07/04 02:07:11;;;;;;;4.22;2.20;;;;;;;17.39;67.63;101863.22;4926350;29;20165;-49
2022/07/04 02:09:39;;;;;;;3.92;2.00;;;;;;;17.39;67.70;101862.38;4938611;29;20386;-48
2022/07/04 02:14:53;;;;;;;4.78;2.40;;;;;;;17.38;67.35;101856.06;4938635;29;20039;-52
2022/07/04 02:17:21;;;;;;;4.97;2.40;;;;;;;17.36;67.64;101858.28;4941473;29;20114;-51
2022/07/04 02:19:49;;;;;;;6.80;2.60;;;;;;;17.37;67.40;101854.44;4944330;29;20035;-51
2022/07/04 02:22:16;;;;;;;5.40;2.63;;;;;;;17.34;67.10;101856.91;4955181;29;20063;-46
2022/07/04 02:24:44;;;;;;;5.72;2.88;;;;;;;17.33;67.51;101858.03;4938194;29;20047;-49
2022/07/04 02:27:12;;;;;;;3.88;2.60;;;;;;;17.29;67.29;101856.97;4946350;29;20051;-48
2022/07/04 02:29:40;;;;;;;6.15;2.63;;;;;;;17.26;67.39;101852.84;4947019;29;20501;-48
2022/07/04 02:32:08;;;;;;;5.15;2.53;;;;;;;17.25;67.49;101853.97;4938803;29;20036;-49
2022/07/04 02:34:36;;;;;;;6.30;2.60;;;;;;;17.25;67.58;101856.75;4936710;29;20039;-47
2022/07/04 02:37:04;;;;;;;5.05;2.67;;;;;;;17.22;67.92;101849.88;4944571;29;20040;-48
2022/07/04 02:39:31;;;;;;;9.13;3.10;;;;;;;17.19;67.92;101864.19;4946102;29;20075;-47
2022/07/04 02:41:59;;;;;;;7.88;2.50;;;;;;;17.18;67.91;101867.25;4938110;29;20044;-47
2022/07/04 02:44:27;;;;;;;5.25;2.50;;;;;;;17.21;67.90;101861.16;4938197;29;20043;-47
2022/07/04 02:46:54;;;;;;;6.35;2.60;;;;;;;17.20;67.53;101854.03;4937651;29;20044;-49
2022/07/04 02:49:23;;;;;;;5.20;2.55;;;;;;;17.19;67.42;101863.38;4939057;29;20052;-48
2022/07/04 02:51:50;;;;;;;6.20;2.45;;;;;;;17.19;67.75;101863.38;4921120;29;20039;-49
2022/07/04 02:54:18;;;;;;;3.97;2.38;;;;;;;17.16;67.80;101863.97;4937594;29;20052;-49
2022/07/04 02:56:45;;;;;;;5.32;2.58;;;;;;;17.13;67.46;101868.13;4920857;29;20127;-50
2022/07/04 02:59:13;;;;;;;4.38;2.50;;;;;;;17.10;67.42;101863.19;4938635;29;20392;-48
2022/07/04 03:01:41;;;;;;;7.10;2.60;;;;;;;17.06;67.48;101869.56;4938760;29;20040;-48
2022/07/04 03:04:08;;;;;;;5.97;2.58;;;;;;;17.02;67.56;101864.59;4935673;29;20043;-49
2022/07/04 03:06:36;;;;;;;5.18;2.42;;;;;;;17.02;67.80;101872.03;4920971;29;20039;-47
2022/07/04 03:09:04;;;;;;;5.88;2.28;;;;;;;17.01;68.03;101873.97;4937415;29;20052;-45
2022/07/04 03:11:31;;;;;;;3.58;2.30;;;;;;;17.02;67.68;101874.78;4945823;29;20490;-48
2022/07/04 03:13:59;;;;;;;4.28;2.35;;;;;;;17.00;67.81;101882.50;4937539;29;20048;-48
2022/07/04 03:16:26;;;;;;;3.88;2.40;;;;;;;17.03;67.65;101887.47;4937065;29;20051;-48
2022/07/04 03:18:54;;;;;;;5.10;2.60;;;;;;;17.05;67.72;101887.97;4938522;29;20046;-49
2022/07/04 03:21:22;;;;;;;3.90;2.50;;;;;;;17.08;67.74;101883.84;4939709;29;20035;-50
2022/07/04 03:23:58;;;;;;;3.65;2.20;;;;;;;17.06;67.38;101891.59;4938344;29;20048;-49
2022/07/04 03:26:31;;;;;;;5.70;2.42;;;;;;;17.02;67.75;101897.63;4937382;29;20562;-49
2022/07/04 03:29:00;;;;;;;7.35;2.65;;;;;;;16.98;67.55;101893.84;4937532;29;20053;-48
2022/07/04 03:31:29;;;;;;;4.25;2.35;;;;;;;16.98;67.71;101891.06;4938111;29;20165;-46
2022/07/04 03:33:57;;;;;;;4.10;2.65;;;;;;;16.95;67.24;101886.13;4920016;29;20047;-47
2022/07/04 03:36:24;;;;;;;9.43;3.05;;;;;;;16.92;67.35;101886.69;4928851;29;20505;-48
2022/07/04 03:38:52;;;;;;;5.80;2.78;;;;;;;16.89;67.28;101887.28;4937012;29;20122;-49
2022/07/04 03:41:19;;;;;;;5.15;2.38;;;;;;;16.90;67.54;101896.34;4936665;29;20051;-51
2022/07/04 03:43:47;;;;;;;6.15;2.85;;;;;;;16.88;67.50;101896.63;4937131;29;20052;-49
2022/07/04 03:46:15;;;;;;;6.43;2.55;;;;;;;16.86;67.39;101901.63;4936660;29;20545;-48
2022/07/04 03:48:43;;;;;;;3.67;2.15;;;;;;;16.88;67.54;101896.63;4948333;29;20059;-49
2022/07/04 03:51:12;;;;;;;4.90;2.60;;;;;;;16.89;67.59;101905.72;4943034;29;20035;-49
2022/07/04 03:53:40;;;;;;;5.43;2.70;;;;;;;16.87;67.50;101899.69;4940050;29;20059;-51
2022/07/04 03:56:08;;;;;;;7.28;2.60;;;;;;;16.83;67.52;101915.94;4928236;29;20513;-48
2022/07/04 03:58:36;;;;;;;4.65;2.20;;;;;;;16.84;68.13;101917.59;4936561;29;20043;-49
2022/07/04 04:01:04;;;;;;;4.93;2.30;;;;;;;16.83;68.07;101918.69;4936574;29;20119;-50
2022/07/04 04:06:18;;;;;;;6.90;2.60;;;;;;;16.80;67.86;101927.50;4936678;29;20070;-49
2022/07/04 04:08:45;;;;;;;5.35;2.72;;;;;;;16.77;68.51;101933.56;4921006;29;20537;-48
2022/07/04 04:11:13;;;;;;;5.88;2.80;;;;;;;16.77;68.32;101934.38;4945887;29;20066;-46
2022/07/04 04:13:41;;;;;;;5.07;2.70;;;;;;;16.79;68.81;101931.38;4936344;29;20044;-48
2022/07/04 04:16:08;;;;;;;5.00;2.42;;;;;;;16.83;69.16;101935.19;4922400;29;20043;-45
2022/07/04 04:18:36;;;;;;;6.63;2.72;;;;;;;16.82;68.57;101942.63;4944252;29;20039;-49
2022/07/04 04:21:05;;;;;;;8.48;3.10;;;;;;;16.81;68.85;101934.66;4936235;29;20483;-48
2022/07/04 04:23:32;;;;;;;6.75;2.63;;;;;;;16.78;69.04;101929.69;4937124;29;20115;-51
2022/07/04 04:26:00;;;;;;;7.28;3.03;;;;;;;16.77;69.04;101928.06;4918688;29;20398;-48
2022/07/04 04:28:28;;;;;;;5.60;2.75;;;;;;;16.79;68.71;101928.63;4921546;29;20039;-48
2022/07/04 04:30:55;;;;;;;6.93;2.42;;;;;;;16.85;68.94;101934.91;4935838;29;20066;-49
2022/07/04 04:33:23;;;;;;;7.80;2.80;;;;;;;16.80;69.23;101935.75;4936117;29;20419;-48
2022/07/04 04:35:50;;;;;;;7.80;2.88;;;;;;;16.80;69.43;101939.34;4942088;29;20135;-48
2022/07/04 04:38:18;;;;;;;5.88;2.13;;;;;;;16.91;70.08;101942.88;4935039;29;20039;-49
2022/07/04 04:40:46;;;;;;;8.68;3.00;;;;;;;16.91;69.95;101944.78;4950912;28;20044;-48
2022/07/04 04:43:13;;;;;;;6.70;3.25;;;;;;;16.90;70.00;101940.41;4936149;29;20054;-48
2022/07/04 04:45:41;;;;;;;5.13;2.95;;;;;;;16.88;69.97;101943.41;4950706;29;20044;-49
2022/07/04 04:48:09;;;;;;;8.68;3.70;;;;;;;16.83;69.79;101944.28;4935121;29;20415;-49
2022/07/04 04:50:37;;;;;;;8.18;3.58;;;;;;;16.82;69.58;101947.31;4950515;29;20036;-49
2022/07/04 04:53:04;;;;;;;8.75;3.28;;;;;;;16.76;70.15;101940.16;4935781;29;20126;-52
2022/07/04 04:55:32;;;;;;;6.07;2.85;;;;;;;16.78;70.12;101937.94;4923153;29;20451;-48
2022/07/04 04:58:00;;;;;;;7.53;3.60;;;;;;;16.73;70.01;101947.03;4935820;29;20143;-47
2022/07/04 05:00:27;;;;;;;6.30;2.72;;;;;;;16.71;70.73;101940.19;4938135;29;20052;-48
2022/07/04 05:02:55;;;;;;;9.55;3.13;;;;;;;16.75;70.58;101941.28;4943818;29;20039;-48
2022/07/04 05:05:23;;;;;;;7.90;3.00;;;;;;;16.74;70.40;101934.09;4939896;29;20046;-46
2022/07/04 05:07:50;;;;;;;5.47;2.95;;;;;;;16.74;70.61;101929.44;4939616;29;20046;-51
2022/07/04 05:10:18;;;;;;;8.60;3.15;;;;;;;16.79;70.79;101926.69;4260939;29;10000606;-48
2022/07/04 05:12:46;;;;;;;4.45;2.58;;;;;;;16.75;70.77;101930.25;4933017;29;20043;-48
2022/07/04 05:15:14;;;;;;;4.68;2.67;;;;;;;16.76;70.77;101931.91;4933658;29;20410;-48
2022/07/04 05:17:41;;;;;;;6.70;3.00;;;;;;;16.78;71.31;101929.69;4934968;29;20367;-48
2022/07/04 05:20:09;;;;;;;7.20;3.42;;;;;;;16.82;71.26;101928.06;4932355;29;20050;-50
2022/07/04 05:22:37;;;;;;;8.23;3.03;;;;;;;16.89;71.46;101930.50;4933605;29;20047;-51
2022/07/04 05:25:05;;;;;;;9.00;3.80;;;;;;;16.87;71.56;101930.78;4934653;29;20046;-47
2022/07/04 05:27:33;;;;;;;7.95;3.05;;;;;;;16.89;71.37;101925.81;4927299;29;20047;-52
2022/07/04 05:30:00;;;;;;;7.43;3.33;;;;;;;16.86;71.68;101929.16;4932780;29;20054;-47
2022/07/04 05:32:28;;;;;;;3.92;2.33;;;;;;;16.86;71.56;101925.53;4931425;29;20123;-47
2022/07/04 05:34:56;;;;;;;5.38;2.90;;;;;;;16.89;71.90;101930.50;4931933;29;20047;-48
2022/07/04 05:37:24;;;;;;;5.97;2.85;;;;;;;16.90;71.94;101932.13;4935381;29;20515;-48
2022/07/04 05:39:51;;;;;;;5.40;2.35;;;;;;;16.94;72.08;101938.72;4931559;29;20501;-50
2022/07/04 05:42:19;;;;;;;5.30;2.17;;;;;;;16.98;71.89;101940.63;4932130;29;20051;-48
2022/07/04 05:44:46;;;;;;;7.63;2.90;;;;;;;17.02;72.19;101952.72;4916697;29;20043;-50
2022/07/04 05:47:14;;;;;;;6.82;3.20;;;;;;;17.02;72.03;101952.72;4931576;29;20453;-50
2022/07/04 05:49:42;;;;;;;9.98;3.42;;;;;;;17.10;71.86;101948.56;4591306;29;10000101;-50
2022/07/04 05:52:09;;;;;;;5.15;2.83;;;;;;;17.07;71.96;101943.59;4935362;29;20035;-49
2022/07/04 05:54:37;;;;;;;4.00;2.25;;;;;;;17.06;72.04;101938.41;4933891;29;20039;-50
2022/07/04 05:57:05;;;;;;;5.05;2.70;;;;;;;17.11;72.36;101950.19;4936328;29;20063;-52
2022/07/04 05:59:32;;;;;;;10.18;3.70;;;;;;;17.20;72.15;101950.44;4941515;29;20402;-50
2022/07/04 06:02:00;;;;;;;6.30;2.90;;;;;;;17.19;71.90;101946.00;4942240;29;20055;-50
2022/07/04 06:04:28;;;;;;;7.57;3.20;;;;;;;17.19;71.82;101951.50;4936428;29;20051;-50
2022/07/04 06:06:56;;;;;;;5.63;2.70;;;;;;;17.20;72.06;101958.69;4939917;28;20044;-48
2022/07/04 06:09:23;;;;;;;7.32;3.10;;;;;;;17.26;71.77;101960.28;4937298;29;20067;-52
2022/07/04 06:11:51;;;;;;;8.38;2.85;;;;;;;17.37;71.40;101970.13;4938509;29;20056;-48
2022/07/04 06:14:19;;;;;;;6.78;2.95;;;;;;;17.42;71.28;101963.78;4937790;29;20040;-51
2022/07/04 06:16:46;;;;;;;7.65;3.45;;;;;;;17.38;71.63;101969.00;4940953;29;20454;-52
2022/07/04 06:19:14;;;;;;;9.05;3.17;;;;;;;17.38;71.66;101965.44;4927367;29;20410;-46
2022/07/04 06:21:41;;;;;;;7.68;2.95;;;;;;;17.37;71.79;101964.63;4937996;29;20054;-49
2022/07/04 06:24:09;;;;;;;8.73;3.90;;;;;;;17.32;72.48;101966.56;4938951;29;20048;-47
2022/07/04 06:26:37;;;;;;;11.15;4.40;;;;;;;17.40;72.31;101960.47;4941518;29;20039;-49
2022/07/04 06:29:04;;;;;;;9.63;3.38;;;;;;;17.41;72.38;101957.44;4938550;29;20141;-47
2022/07/04 06:31:32;;;;;;;13.18;3.20;;;;;;;17.46;71.69;101968.44;4939826;29;20039;-48
2022/07/04 06:36:49;;;;;;;12.82;4.43;;;;;;;17.54;72.09;101952.41;4941289;29;20490;-47
2022/07/04 06:39:17;;;;;;;15.68;5.82;;;;;;;17.59;72.21;101946.84;4943120;29;20043;-47
2022/07/04 06:41:45;;;;;;;18.38;6.22;;;;;;;17.63;71.87;101951.47;4938048;29;20044;-48
2022/07/04 06:44:12;;;;;;;15.40;5.28;;;;;;;17.66;71.89;101961.94;4937943;29;20052;-47
2022/07/04 06:46:40;;;;;;;9.35;3.58;;;;;;;17.64;71.18;101953.13;4936684;29;20051;-49
2022/07/04 06:49:08;;;;;;;9.82;3.95;;;;;;;17.66;70.45;101955.59;4943751;29;20050;-52
2022/07/04 06:51:35;;;;;;;9.43;3.40;;;;;;;17.61;70.82;101963.91;4943244;29;20043;-45
2022/07/04 06:54:03;;;;;;;13.18;3.47;;;;;;;17.59;70.78;101955.91;4938054;29;20571;-47
2022/07/04 06:56:31;;;;;;;10.00;3.17;;;;;;;17.60;70.69;101963.06;4943671;29;20046;-48
2022/07/04 06:58:59;;;;;;;8.55;3.20;;;;;;;17.61;70.41;101958.41;4942575;29;20120;-49
2022/07/04 07:01:27;;;;;;;8.88;3.47;;;;;;;17.65;70.23;101965.81;4944418;29;20047;-49
2022/07/04 07:03:54;;;;;;;8.80;3.10;;;;;;;17.69;70.67;101968.78;4946504;29;20176;-47
2022/07/04 07:06:23;;;;;;;8.10;3.45;;;;;;;17.70;70.31;101964.09;4921396;29;20376;-50
2022/07/04 07:08:51;;;;;;;14.38;3.70;;;;;;;17.67;70.57;101951.72;4935365;29;20097;-48
2022/07/04 07:11:19;;;;;;;10.30;3.70;;;;;;;17.63;70.40;101956.16;4937653;29;20055;-46
2022/07/04 07:13:50;;;;;;;8.57;2.80;;;;;;;17.59;70.66;101955.09;4939987;29;20043;-48
2022/07/04 07:16:18;;;;;;;5.85;2.72;;;;;;;17.67;70.40;101949.78;4920519;29;20047;-49
2022/07/04 07:18:49;;;;;;;11.57;3.38;;;;;;;17.73;70.45;101953.34;4905974;29;20036;-47
2022/07/04 07:21:18;;;;;;;7.40;2.90;;;;;;;17.86;69.91;101949.94;4937286;29;20451;-44
2022/07/04 07:23:45;;;;;;;9.55;3.17;;;;;;;17.97;69.19;101949.84;4921147;29;20063;-50
2022/07/04 07:26:13;;;;;;;8.10;3.15;;;;;;;17.99;69.14;101948.44;4937094;29;20043;-45
2022/07/04 07:28:41;;;;;;;8.75;2.78;;;;;;;18.10;68.82;101957.44;4938145;29;20403;-45
2022/07/04 07:31:09;;;;;;;6.95;3.00;;;;;;;18.10;68.92;101954.66;4937078;29;20526;-45
2022/07/04 07:33:36;;;;;;;5.60;2.17;;;;;;;18.10;69.24;101957.44;4937265;29;20400;-45
2022/07/04 07:36:04;;;;;;;10.15;3.22;;;;;;;18.17;69.11;101954.34;4937887;29;20043;-47
2022/07/04 07:38:33;;;;;;;9.68;3.50;;;;;;;18.03;68.95;101957.75;4938006;29;20106;-45
2022/07/04 07:41:01;;;;;;;11.15;3.67;;;;;;;17.97;69.19;101961.69;4938442;29;20040;-47
2022/07/04 07:43:29;;;;;;;10.32;3.40;;;;;;;17.99;69.22;101964.16;4937945;29;20039;-47
2022/07/04 07:45:56;;;;;;;9.38;3.15;;;;;;;17.96;69.20;101953.69;4936610;29;20062;-48
2022/07/04 07:48:24;;;;;;;7.97;3.08;;;;;;;17.93;69.06;101954.28;4939868;29;20086;-47
2022/07/04 07:50:52;;;;;;;7.22;2.78;;;;;;;17.97;68.80;101944.34;4926089;29;20105;-52
2022/07/04 07:53:19;;;;;;;6.47;2.80;;;;;;;17.94;68.68;101936.63;4937014;29;20052;-54
2022/07/04 07:55:47;;;;;;;9.82;3.22;;;;;;;17.90;69.01;101932.81;4937689;29;20051;-52
2022/07/04 07:58:15;;;;;;;7.75;2.90;;;;;;;17.91;69.50;101939.97;4937779;29;20063;-51
2022/07/04 08:00:43;;;;;;;9.77;2.83;;;;;;;18.01;69.41;101939.88;4936499;29;20040;-53
2022/07/04 08:06:12;;;;;;;9.40;3.05;;;;;;;18.15;68.82;101940.81;4925652;29;20155;-52
2022/07/04 08:08:41;;;;;;;5.00;2.15;;;;;;;18.20;68.29;101929.72;4926501;29;20135;-46
2022/07/04 08:11:09;;;;;;;10.05;2.50;;;;;;;18.24;68.06;101930.78;4906169;29;20054;-53
2022/07/04 08:13:38;;;;;;;7.70;3.17;;;;;;;18.28;67.89;101940.13;4937296;29;20487;-52
2022/07/04 08:16:06;;;;;;;6.97;2.67;;;;;;;18.29;67.90;101936.25;4919441;29;20380;-52
2022/07/04 08:18:35;;;;;;;9.63;3.30;;;;;;;18.29;67.58;101935.44;4922062;29;20051;-54
2022/07/04 08:21:03;;;;;;;5.78;2.58;;;;;;;18.28;67.24;101940.13;4948634;29;20047;-45
2022/07/04 08:23:39;;;;;;;6.10;2.70;;;;;;;18.28;67.25;101934.63;4920861;29;20483;-48
2022/07/04 08:26:23;;;;;;;5.72;2.20;;;;;;;18.38;67.12;101943.91;4951216;29;20122;-48
2022/07/04 08:28:52;;;;;;;6.18;2.13;;;;;;;18.51;67.16;101946.75;4926748;29;20510;-46
2022/07/04 08:31:20;;;;;;;7.32;2.95;;;;;;;18.48;66.29;101955.63;4935833;29;20035;-47
2022/07/04 08:34:07;;;;;;;9.35;2.78;;;;;;;18.47;66.12;101947.63;4935967;29;20499;-52
2022/07/04 08:36:35;;;;;;;8.18;2.78;;;;;;;18.57;66.31;101950.31;4938029;29;20043;-49
2022/07/04 08:39:02;;;;;;;6.50;2.35;;;;;;;18.57;65.93;101947.53;4935874;29;20411;-48
2022/07/04 08:41:38;;;;;;;8.35;2.90;;;;;;;18.58;65.93;101943.66;4918937;29;20050;-48
2022/07/04 08:44:11;;;;;;;9.57;2.83;;;;;;;18.57;65.37;101954.97;4936850;29;20521;-48
2022/07/04 08:46:40;;;;;;;8.75;2.92;;;;;;;18.61;65.50;101958.81;4919705;29;20100;-51
2022/07/04 08:49:37;;;;;;;6.47;2.47;;;;;;;18.59;65.73;101961.03;4919007;29;20044;-48
2022/07/04 08:52:06;;;;;;;7.65;2.33;;;;;;;18.63;65.74;101962.09;4907724;29;20060;-50
2022/07/04 09:00:07;;;;;;;7.47;2.75;;;;;;;18.65;65.82;101959.88;4935716;29;20047;-48
2022/07/04 09:02:37;;;;;;;8.93;2.80;;;;;;;18.68;65.21;101946.28;4935521;29;20058;-51
2022/07/04 09:05:07;;;;;;;6.60;2.40;;;;;;;18.76;65.44;101950.38;4936817;29;20035;-49
2022/07/04 09:07:35;;;;;;;8.73;2.60;;;;;;;18.83;65.34;101952.75;4916008;29;20040;-49
2022/07/04 09:10:03;;;;;;;8.07;2.33;;;;;;;18.87;65.49;101953.81;4935884;29;20040;-49
2022/07/04 09:12:31;;;;;;;8.60;2.50;;;;;;;18.92;65.31;101959.25;4935020;29;20544;-49
2022/07/04 09:15:19;;;;;;;8.73;2.67;;;;;;;18.96;65.50;101953.97;4936570;29;20048;-47
2022/07/04 09:17:47;;;;;;;9.25;2.78;;;;;;;19.01;64.59;101957.47;4943218;29;20403;-48
2022/07/04 09:20:16;;;;;;;7.15;2.60;;;;;;;19.09;64.23;101965.09;4918942;29;20043;-47
2022/07/04 09:22:44;;;;;;;6.70;2.40;;;;;;;19.14;63.53;101955.91;4935471;29;20398;-49
2022/07/04 09:25:14;;;;;;;8.68;2.30;;;;;;;19.19;63.60;101949.50;4923907;29;20035;-51
2022/07/04 09:27:47;;;;;;;7.65;2.30;;;;;;;19.28;63.61;101951.28;4919919;29;20047;-48
2022/07/04 09:30:18;;;;;;;4.95;1.90;;;;;;;19.34;62.98;101950.09;4918834;29;20491;-51
2022/07/04 09:32:52;;;;;;;7.15;2.35;;;;;;;19.40;62.78;101953.59;4918648;29;20050;-50
2022/07/04 09:35:23;;;;;;;7.43;2.38;;;;;;;19.50;63.02;101963.66;4936475;29;20035;-48
2022/07/04 09:37:56;;;;;;;8.98;2.60;;;;;;;19.46;62.63;101946.88;4936332;29;20079;-48
2022/07/04 09:40:28;;;;;;;4.07;1.70;;;;;;;19.52;62.86;101944.84;4935801;29;20043;-48
2022/07/04 09:42:58;;;;;;;8.27;2.67;;;;;;;19.61;62.13;101942.22;4939027;29;20055;-48
2022/07/04 09:45:28;;;;;;;6.22;2.20;;;;;;;19.59;61.66;101951.63;4940626;29;20079;-48
2022/07/04 09:47:57;;;;;;;7.38;2.10;;;;;;;19.67;61.72;101946.53;4926975;29;20058;-48
2022/07/04 09:50:26;;;;;;;4.57;1.95;;;;;;;19.70;61.29;101948.72;4937042;29;20040;-49
2022/07/04 09:53:02;;;;;;;10.27;2.65;;;;;;;19.73;60.96;101948.13;4927158;29;20521;-45
2022/07/04 09:55:32;;;;;;;3.75;1.70;;;;;;;19.75;61.15;101943.94;4229963;29;10000631;-48
2022/07/04 09:58:05;;;;;;;6.28;2.20;;;;;;;19.81;60.95;101941.09;4961394;28;20051;-47
2022/07/04 10:00:36;;;;;;;6.68;2.25;;;;;;;19.90;60.09;101933.72;4933212;29;20051;-53
2022/07/04 10:03:32;;;;;;;7.07;2.75;;;;;;;19.96;59.59;101946.31;4918891;29;20031;-49
2022/07/04 10:06:08;;;;;;;7.10;2.20;;;;;;;19.97;60.62;101940.50;4918923;29;20143;-52
2022/07/04 10:08:36;;;;;;;8.57;2.72;;;;;;;20.02;60.32;101941.53;4923943;29;20052;-50
2022/07/04 10:11:05;;;;;;;26.52;14.55;;;;;;;20.05;61.00;101935.38;4920460;29;20060;-48
2022/07/04 10:13:37;;;;;;;35.90;20.50;;;;;;;20.12;60.16;101938.59;4915675;29;20458;-53
2022/07/04 10:16:07;;;;;;;12.32;5.13;;;;;;;20.18;59.44;101940.13;4937827;29;20052;-52
2022/07/04 10:18:35;;;;;;;12.73;5.93;;;;;;;20.17;59.27;101932.94;4938640;29;20051;-51
2022/07/04 10:21:04;;;;;;;15.13;7.25;;;;;;;20.14;59.62;101934.38;4938269;29;20376;-50
2022/07/04 10:23:31;;;;;;;12.77;5.90;;;;;;;20.15;58.78;101919.41;4940554;29;20122;-50
2022/07/04 10:25:59;;;;;;;9.02;3.38;;;;;;;20.13;58.32;101927.22;4922904;29;20070;-51
2022/07/04 10:28:27;;;;;;;14.23;4.70;;;;;;;20.07;59.18;101933.97;4937962;29;20062;-52
2022/07/04 10:30:57;;;;;;;9.15;3.97;;;;;;;20.03;59.94;101921.84;4938163;29;20044;-47
2022/07/04 10:33:28;;;;;;;9.57;3.63;;;;;;;20.01;60.28;101929.63;4928790;29;20047;-48
2022/07/04 10:36:03;;;;;;;9.55;3.92;;;;;;;20.03;60.22;101926.56;4922435;29;20052;-49
2022/07/04 10:38:46;;;;;;;8.73;4.10;;;;;;;20.08;60.03;101924.53;4937899;29;20067;-46
2022/07/04 10:41:14;;;;;;;8.82;2.70;;;;;;;20.10;59.38;101916.75;4938517;29;20047;-48
2022/07/04 10:44:00;;;;;;;7.63;2.60;;;;;;;20.15;59.70;101924.13;4937841;29;20048;-45
2022/07/04 10:46:30;;;;;;;10.48;2.83;;;;;;;20.26;59.71;101920.03;4937668;29;20587;-48
2022/07/04 10:49:03;;;;;;;8.80;2.88;;;;;;;20.32;59.35;101924.34;4937422;29;20076;-47
2022/07/04 10:51:41;;;;;;;8.52;3.05;;;;;;;20.31;58.96;101914.41;4595336;29;10000013;-46
2022/07/04 10:54:09;;;;;;;6.38;2.40;;;;;;;20.31;59.02;101905.28;4922676;29;20086;-50
2022/07/04 10:56:40;;;;;;;7.95;2.65;;;;;;;20.29;59.20;101905.56;4934680;29;20056;-47
2022/07/04 10:59:28;;;;;;;7.57;2.53;;;;;;;20.27;59.75;101910.59;4934452;29;20747;-49
2022/07/04 11:02:08;;;;;;;5.55;2.28;;;;;;;20.28;60.36;101914.22;4917830;29;20053;-47
2022/07/04 11:05:09;;;;;;;9.98;2.55;;;;;;;20.33;60.29;101911.34;4934488;29;20455;-50
2022/07/04 11:07:37;;;;;;;7.00;2.45;;;;;;;20.37;59.95;101909.56;4917436;29;20134;-52
2022/07/04 11:10:21;;;;;;;5.40;2.22;;;;;;;20.37;59.14;101904.88;4933246;29;20051;-48
2022/07/04 11:12:58;;;;;;;5.03;2.15;;;;;;;20.36;59.95;101913.47;4938881;29;20087;-48
2022/07/04 11:15:28;;;;;;;6.97;3.10;;;;;;;20.36;61.44;101917.06;4934155;29;20066;-49
2022/07/04 11:18:04;;;;;;;8.50;3.00;;;;;;;20.39;61.70;101916.44;4933016;29;20127;-47
2022/07/04 11:20:34;;;;;;;8.45;3.10;;;;;;;20.40;61.54;101914.50;4924700;29;20048;-49
2022/07/04 11:23:10;;;;;;;6.78;2.88;;;;;;;20.38;61.26;101914.00;4938278;29;20050;-45
2022/07/04 11:25:43;;;;;;;10.38;3.30;;;;;;;20.38;61.60;101908.47;4937087;29;20091;-47
2022/07/04 11:28:32;;;;;;;8.00;3.50;;;;;;;20.31;61.70;101917.16;4936100;29;20509;-49
2022/07/04 11:31:11;;;;;;;7.57;2.85;;;;;;;20.31;62.12;101922.69;4941988;29;20059;-50
2022/07/04 11:33:41;;;;;;;10.48;3.28;;;;;;;20.36;62.42;101919.00;4920289;29;20095;-50
2022/07/04 11:36:10;;;;;;;11.13;3.05;;;;;;;20.39;62.53;101913.66;4940730;29;20042;-48
2022/07/04 11:38:55;;;;;;;11.50;3.60;;;;;;;20.42;62.04;101912.25;4943570;29;20040;-48
2022/07/04 11:47:40;;;;;;;11.48;4.00;;;;;;;20.48;61.77;101896.34;4945025;29;20050;-45
2022/07/04 11:50:18;;;;;;;8.98;3.53;;;;;;;20.52;61.23;101902.91;4919145;29;20044;-45
2022/07/04 11:52:47;;;;;;;11.25;3.28;;;;;;;20.56;61.45;101901.19;4920756;29;20111;-47
2022/07/04 11:55:34;;;;;;;10.15;3.72;;;;;;;20.62;61.01;101894.41;4944442;29;20051;-50
2022/07/04 11:58:02;;;;;;;7.53;3.80;;;;;;;20.66;60.63;101895.44;4937476;29;20032;-49
2022/07/04 12:00:31;;;;;;;8.07;3.53;;;;;;;20.77;59.85;101891.31;4936377;29;20040;-45